sensor_id;sensor_type;location;lat;lon;timestamp;P1;durP1;ratioP1;P2;durP2;ratioP2
62947;SDS011;51940;52.126;-0.994;2022-07-03T00:01:33;1.30;;;1.20;;
62947;SDS011;51940;52.126;-0.994;2022-07-03T00:03:59;1.90;;;1.40;;
62947;SDS011;51940;52.126;-0.994;2022-07-03T00:06:25;2.50;;;1.10;;
62947;SDS011;51940;52.126;-0.994;2022-07-03T00:08:51;2.10;;;1.50;;
62947;SDS011;51940;52.126;-0.994;2022-07-03T00:11:18;2.60;;;1.30;;
62947;SDS011;51940;52.126;-0.994;2022-07-03T00:13:43;2.60;;;1.30;;
62947;SDS011;51940;52.126;-0.994;2022-07-03T00:16:09;2.00;;;1.30;;
62947;SDS011;51940;52.126;-0.994;2022-07-03T00:18:34;1.60;;;1.10;;
62947;SDS011;51940;52.126;-0.994;2022-07-03T00:21:04;1.80;;;1.40;;
62947;SDS011;51940;52.126;-0.994;2022-07-03T00:23:46;1.40;;;1.20;;
62947;SDS011;51940;52.126;-0.994;2022-07-03T00:26:19;2.70;;;1.50;;
62947;SDS011;51940;52.126;-0.994;2022-07-03T00:28:46;3.20;;;1.40;;
62947;SDS011;51940;52.126;-0.994;2022-07-03T00:31:12;2.60;;;1.70;;
62947;SDS011;51940;52.126;-0.994;2022-07-03T00:33:38;2.90;;;1.50;;
62947;SDS011;51940;52.126;-0.994;2022-07-03T00:36:06;3.40;;;1.30;;
62947;SDS011;51940;52.126;-0.994;2022-07-03T00:38:32;4.10;;;1.60;;
62947;SDS011;51940;52.126;-0.994;2022-07-03T00:40:58;1.50;;;1.40;;
62947;SDS011;51940;52.126;-0.994;2022-07-03T00:43:26;2.00;;;1.30;;
62947;SDS011;51940;52.126;-0.994;2022-07-03T00:45:51;2.30;;;1.50;;
62947;SDS011;51940;52.126;-0.994;2022-07-03T00:48:19;1.60;;;1.30;;
62947;SDS011;51940;52.126;-0.994;2022-07-03T00:50:48;1.30;;;1.20;;
62947;SDS011;51940;52.126;-0.994;2022-07-03T00:53:26;2.00;;;1.50;;
62947;SDS011;51940;52.126;-0.994;2022-07-03T00:55:55;2.70;;;1.40;;
62947;SDS011;51940;52.126;-0.994;2022-07-03T00:58:21;1.90;;;1.40;;
62947;SDS011;51940;52.126;-0.994;2022-07-03T01:00:48;2.80;;;1.60;;
62947;SDS011;51940;52.126;-0.994;2022-07-03T01:03:17;2.30;;;1.40;;
62947;SDS011;51940;52.126;-0.994;2022-07-03T01:05:45;3.60;;;1.30;;
62947;SDS011;51940;52.126;-0.994;2022-07-03T01:13:52;3.20;;;1.60;;
62947;SDS011;51940;52.126;-0.994;2022-07-03T01:18:58;2.30;;;1.60;;
62947;SDS011;51940;52.126;-0.994;2022-07-03T01:21:48;3.00;;;1.70;;
62947;SDS011;51940;52.126;-0.994;2022-07-03T01:27:10;3.60;;;1.50;;
62947;SDS011;51940;52.126;-0.994;2022-07-03T01:32:23;4.40;;;1.40;;
62947;SDS011;51940;52.126;-0.994;2022-07-03T01:34:51;5.60;;;1.40;;
62947;SDS011;51940;52.126;-0.994;2022-07-03T01:37:20;1.70;;;1.50;;
62947;SDS011;51940;52.126;-0.994;2022-07-03T01:39:51;4.20;;;1.40;;
62947;SDS011;51940;52.126;-0.994;2022-07-03T01:42:18;2.20;;;1.50;;
62947;SDS011;51940;52.126;-0.994;2022-07-03T01:44:48;2.50;;;1.40;;
62947;SDS011;51940;52.126;-0.994;2022-07-03T01:47:18;2.30;;;1.30;;
62947;SDS011;51940;52.126;-0.994;2022-07-03T01:49:44;4.50;;;1.80;;
62947;SDS011;51940;52.126;-0.994;2022-07-03T01:52:10;5.00;;;1.70;;
62947;SDS011;51940;52.126;-0.994;2022-07-03T01:54:37;4.70;;;2.00;;
62947;SDS011;51940;52.126;-0.994;2022-07-03T01:57:07;1.80;;;1.50;;
62947;SDS011;51940;52.126;-0.994;2022-07-03T01:59:33;1.80;;;1.60;;
62947;SDS011;51940;52.126;-0.994;2022-07-03T02:04:54;2.30;;;1.80;;
62947;SDS011;51940;52.126;-0.994;2022-07-03T02:10:13;2.30;;;1.60;;
62947;SDS011;51940;52.126;-0.994;2022-07-03T02:12:49;2.00;;;1.60;;
62947;SDS011;51940;52.126;-0.994;2022-07-03T02:15:21;2.20;;;1.70;;
62947;SDS011;51940;52.126;-0.994;2022-07-03T02:17:57;1.80;;;1.70;;
62947;SDS011;51940;52.126;-0.994;2022-07-03T02:20:25;3.70;;;1.90;;
62947;SDS011;51940;52.126;-0.994;2022-07-03T02:22:57;3.80;;;2.10;;
62947;SDS011;51940;52.126;-0.994;2022-07-03T02:25:36;2.00;;;1.80;;
62947;SDS011;51940;52.126;-0.994;2022-07-03T02:28:21;3.10;;;1.70;;
62947;SDS011;51940;52.126;-0.994;2022-07-03T02:30:55;3.10;;;1.80;;
62947;SDS011;51940;52.126;-0.994;2022-07-03T02:33:29;1.60;;;1.50;;
62947;SDS011;51940;52.126;-0.994;2022-07-03T02:35:56;2.10;;;1.50;;
62947;SDS011;51940;52.126;-0.994;2022-07-03T02:38:23;2.00;;;1.60;;
62947;SDS011;51940;52.126;-0.994;2022-07-03T02:41:02;1.70;;;1.60;;
62947;SDS011;51940;52.126;-0.994;2022-07-03T02:43:41;3.40;;;1.70;;
62947;SDS011;51940;52.126;-0.994;2022-07-03T02:46:45;3.10;;;1.60;;
62947;SDS011;51940;52.126;-0.994;2022-07-03T02:58:00;2.20;;;1.60;;
62947;SDS011;51940;52.126;-0.994;2022-07-03T03:00:26;3.00;;;1.90;;
62947;SDS011;51940;52.126;-0.994;2022-07-03T03:02:58;2.40;;;1.60;;
62947;SDS011;51940;52.126;-0.994;2022-07-03T03:11:06;3.40;;;2.10;;
62947;SDS011;51940;52.126;-0.994;2022-07-03T03:13:33;2.00;;;1.70;;
62947;SDS011;51940;52.126;-0.994;2022-07-03T03:18:28;3.40;;;1.40;;
62947;SDS011;51940;52.126;-0.994;2022-07-03T03:20:58;3.70;;;1.80;;
62947;SDS011;51940;52.126;-0.994;2022-07-03T03:23:58;3.50;;;1.90;;
62947;SDS011;51940;52.126;-0.994;2022-07-03T03:26:21;2.50;;;2.00;;
62947;SDS011;51940;52.126;-0.994;2022-07-03T03:28:53;4.20;;;2.10;;
62947;SDS011;51940;52.126;-0.994;2022-07-03T03:31:20;3.30;;;1.80;;
62947;SDS011;51940;52.126;-0.994;2022-07-03T03:33:47;2.30;;;2.10;;
62947;SDS011;51940;52.126;-0.994;2022-07-03T03:36:15;5.70;;;2.00;;
62947;SDS011;51940;52.126;-0.994;2022-07-03T03:38:43;2.80;;;2.10;;
62947;SDS011;51940;52.126;-0.994;2022-07-03T03:41:09;2.80;;;1.90;;
62947;SDS011;51940;52.126;-0.994;2022-07-03T03:43:35;3.60;;;2.20;;
62947;SDS011;51940;52.126;-0.994;2022-07-03T03:46:02;2.60;;;1.90;;
62947;SDS011;51940;52.126;-0.994;2022-07-03T03:48:29;3.20;;;1.80;;
62947;SDS011;51940;52.126;-0.994;2022-07-03T03:50:56;3.10;;;2.20;;
62947;SDS011;51940;52.126;-0.994;2022-07-03T03:53:23;3.40;;;2.30;;
62947;SDS011;51940;52.126;-0.994;2022-07-03T03:58:30;3.70;;;2.00;;
62947;SDS011;51940;52.126;-0.994;2022-07-03T04:00:57;2.80;;;1.90;;
62947;SDS011;51940;52.126;-0.994;2022-07-03T04:03:24;2.90;;;2.30;;
62947;SDS011;51940;52.126;-0.994;2022-07-03T04:05:51;2.90;;;2.20;;
62947;SDS011;51940;52.126;-0.994;2022-07-03T04:08:17;2.60;;;1.90;;
62947;SDS011;51940;52.126;-0.994;2022-07-03T04:10:44;3.30;;;2.30;;
62947;SDS011;51940;52.126;-0.994;2022-07-03T04:13:09;3.60;;;2.00;;
62947;SDS011;51940;52.126;-0.994;2022-07-03T04:15:35;2.70;;;2.10;;
62947;SDS011;51940;52.126;-0.994;2022-07-03T04:18:00;5.80;;;2.10;;
62947;SDS011;51940;52.126;-0.994;2022-07-03T04:20:25;2.90;;;2.50;;
62947;SDS011;51940;52.126;-0.994;2022-07-03T04:22:51;4.10;;;2.00;;
62947;SDS011;51940;52.126;-0.994;2022-07-03T04:25:17;6.20;;;1.90;;
62947;SDS011;51940;52.126;-0.994;2022-07-03T04:27:43;3.10;;;1.90;;
62947;SDS011;51940;52.126;-0.994;2022-07-03T04:30:09;4.00;;;2.10;;
62947;SDS011;51940;52.126;-0.994;2022-07-03T04:32:36;4.40;;;1.70;;
62947;SDS011;51940;52.126;-0.994;2022-07-03T04:35:02;3.50;;;2.20;;
62947;SDS011;51940;52.126;-0.994;2022-07-03T04:37:28;7.60;;;2.50;;
62947;SDS011;51940;52.126;-0.994;2022-07-03T04:39:53;3.30;;;2.00;;
62947;SDS011;51940;52.126;-0.994;2022-07-03T04:42:18;6.20;;;2.20;;
62947;SDS011;51940;52.126;-0.994;2022-07-03T04:44:44;3.50;;;1.90;;
62947;SDS011;51940;52.126;-0.994;2022-07-03T04:47:10;2.00;;;1.70;;
62947;SDS011;51940;52.126;-0.994;2022-07-03T04:49:36;7.90;;;1.90;;
62947;SDS011;51940;52.126;-0.994;2022-07-03T04:52:01;5.30;;;2.40;;
62947;SDS011;51940;52.126;-0.994;2022-07-03T04:54:27;6.80;;;1.70;;
62947;SDS011;51940;52.126;-0.994;2022-07-03T04:56:52;2.80;;;1.70;;
62947;SDS011;51940;52.126;-0.994;2022-07-03T04:59:18;3.20;;;1.70;;
62947;SDS011;51940;52.126;-0.994;2022-07-03T05:01:43;5.00;;;1.70;;
62947;SDS011;51940;52.126;-0.994;2022-07-03T05:04:09;2.90;;;1.80;;
62947;SDS011;51940;52.126;-0.994;2022-07-03T05:06:34;3.70;;;1.50;;
62947;SDS011;51940;52.126;-0.994;2022-07-03T05:09:00;3.10;;;1.60;;
62947;SDS011;51940;52.126;-0.994;2022-07-03T05:11:25;5.10;;;2.40;;
62947;SDS011;51940;52.126;-0.994;2022-07-03T05:13:51;3.30;;;1.30;;
62947;SDS011;51940;52.126;-0.994;2022-07-03T05:16:16;3.40;;;1.30;;
62947;SDS011;51940;52.126;-0.994;2022-07-03T05:18:41;6.20;;;1.60;;
62947;SDS011;51940;52.126;-0.994;2022-07-03T05:21:07;2.40;;;1.10;;
62947;SDS011;51940;52.126;-0.994;2022-07-03T05:23:32;3.70;;;1.40;;
62947;SDS011;51940;52.126;-0.994;2022-07-03T05:25:58;4.40;;;1.50;;
62947;SDS011;51940;52.126;-0.994;2022-07-03T05:28:24;3.50;;;1.30;;
62947;SDS011;51940;52.126;-0.994;2022-07-03T05:30:50;4.20;;;2.30;;
62947;SDS011;51940;52.126;-0.994;2022-07-03T05:33:15;5.60;;;1.20;;
62947;SDS011;51940;52.126;-0.994;2022-07-03T05:35:41;5.00;;;1.30;;
62947;SDS011;51940;52.126;-0.994;2022-07-03T05:38:06;5.70;;;1.30;;
62947;SDS011;51940;52.126;-0.994;2022-07-03T05:40:32;4.60;;;1.40;;
62947;SDS011;51940;52.126;-0.994;2022-07-03T05:42:57;4.00;;;1.30;;
62947;SDS011;51940;52.126;-0.994;2022-07-03T05:45:23;5.00;;;1.50;;
62947;SDS011;51940;52.126;-0.994;2022-07-03T05:47:48;2.20;;;1.10;;
62947;SDS011;51940;52.126;-0.994;2022-07-03T05:50:14;3.20;;;1.40;;
62947;SDS011;51940;52.126;-0.994;2022-07-03T05:52:39;3.00;;;1.10;;
62947;SDS011;51940;52.126;-0.994;2022-07-03T05:55:05;2.20;;;0.90;;
62947;SDS011;51940;52.126;-0.994;2022-07-03T05:57:30;2.80;;;1.10;;
62947;SDS011;51940;52.126;-0.994;2022-07-03T05:59:57;2.80;;;1.00;;
62947;SDS011;51940;52.126;-0.994;2022-07-03T06:02:29;3.60;;;1.00;;
62947;SDS011;51940;52.126;-0.994;2022-07-03T06:04:55;5.50;;;1.10;;
62947;SDS011;51940;52.126;-0.994;2022-07-03T06:07:20;3.80;;;1.10;;
62947;SDS011;51940;52.126;-0.994;2022-07-03T06:09:47;2.70;;;1.00;;
62947;SDS011;51940;52.126;-0.994;2022-07-03T06:12:13;3.30;;;0.90;;
62947;SDS011;51940;52.126;-0.994;2022-07-03T06:14:38;4.10;;;1.00;;
62947;SDS011;51940;52.126;-0.994;2022-07-03T06:17:04;4.60;;;1.00;;
62947;SDS011;51940;52.126;-0.994;2022-07-03T06:19:30;2.80;;;0.90;;
62947;SDS011;51940;52.126;-0.994;2022-07-03T06:21:55;2.90;;;1.20;;
62947;SDS011;51940;52.126;-0.994;2022-07-03T06:24:20;2.80;;;0.80;;
62947;SDS011;51940;52.126;-0.994;2022-07-03T06:26:46;2.40;;;1.00;;
62947;SDS011;51940;52.126;-0.994;2022-07-03T06:29:11;3.40;;;1.00;;
62947;SDS011;51940;52.126;-0.994;2022-07-03T06:31:37;2.30;;;1.00;;
62947;SDS011;51940;52.126;-0.994;2022-07-03T06:34:02;3.10;;;0.80;;
62947;SDS011;51940;52.126;-0.994;2022-07-03T06:36:28;2.60;;;0.80;;
62947;SDS011;51940;52.126;-0.994;2022-07-03T06:38:53;2.20;;;0.90;;
62947;SDS011;51940;52.126;-0.994;2022-07-03T06:41:18;3.00;;;0.90;;
62947;SDS011;51940;52.126;-0.994;2022-07-03T06:43:44;1.50;;;0.70;;
62947;SDS011;51940;52.126;-0.994;2022-07-03T06:46:09;2.50;;;0.80;;
62947;SDS011;51940;52.126;-0.994;2022-07-03T06:48:35;4.30;;;1.00;;
62947;SDS011;51940;52.126;-0.994;2022-07-03T06:51:00;4.40;;;1.20;;
62947;SDS011;51940;52.126;-0.994;2022-07-03T06:53:26;2.30;;;1.00;;
62947;SDS011;51940;52.126;-0.994;2022-07-03T06:55:51;4.80;;;1.10;;
62947;SDS011;51940;52.126;-0.994;2022-07-03T06:58:17;3.10;;;0.80;;
62947;SDS011;51940;52.126;-0.994;2022-07-03T07:00:42;3.20;;;0.70;;
62947;SDS011;51940;52.126;-0.994;2022-07-03T07:03:07;2.30;;;0.70;;
62947;SDS011;51940;52.126;-0.994;2022-07-03T07:05:33;2.80;;;1.20;;
62947;SDS011;51940;52.126;-0.994;2022-07-03T07:07:59;2.70;;;1.00;;
62947;SDS011;51940;52.126;-0.994;2022-07-03T07:10:24;3.60;;;0.90;;
62947;SDS011;51940;52.126;-0.994;2022-07-03T07:12:50;3.30;;;1.00;;
62947;SDS011;51940;52.126;-0.994;2022-07-03T07:15:15;2.40;;;0.90;;
62947;SDS011;51940;52.126;-0.994;2022-07-03T07:17:41;2.80;;;0.80;;
62947;SDS011;51940;52.126;-0.994;2022-07-03T07:20:07;3.20;;;0.70;;
62947;SDS011;51940;52.126;-0.994;2022-07-03T07:22:33;2.60;;;0.60;;
62947;SDS011;51940;52.126;-0.994;2022-07-03T07:25:00;1.80;;;0.60;;
62947;SDS011;51940;52.126;-0.994;2022-07-03T07:27:26;2.30;;;0.80;;
62947;SDS011;51940;52.126;-0.994;2022-07-03T07:29:52;2.20;;;0.70;;
62947;SDS011;51940;52.126;-0.994;2022-07-03T07:32:19;2.20;;;0.80;;
62947;SDS011;51940;52.126;-0.994;2022-07-03T07:34:44;2.30;;;0.80;;
62947;SDS011;51940;52.126;-0.994;2022-07-03T07:37:10;2.70;;;0.80;;
62947;SDS011;51940;52.126;-0.994;2022-07-03T07:39:35;2.50;;;1.00;;
62947;SDS011;51940;52.126;-0.994;2022-07-03T07:42:00;3.30;;;0.90;;
62947;SDS011;51940;52.126;-0.994;2022-07-03T07:44:26;1.90;;;0.80;;
62947;SDS011;51940;52.126;-0.994;2022-07-03T07:46:52;1.60;;;0.80;;
62947;SDS011;51940;52.126;-0.994;2022-07-03T07:49:17;5.10;;;1.10;;
62947;SDS011;51940;52.126;-0.994;2022-07-03T07:51:42;2.00;;;0.80;;
62947;SDS011;51940;52.126;-0.994;2022-07-03T07:54:08;2.90;;;0.90;;
62947;SDS011;51940;52.126;-0.994;2022-07-03T07:56:33;3.30;;;1.00;;
62947;SDS011;51940;52.126;-0.994;2022-07-03T07:59:01;4.10;;;0.90;;
62947;SDS011;51940;52.126;-0.994;2022-07-03T08:01:26;3.00;;;0.90;;
62947;SDS011;51940;52.126;-0.994;2022-07-03T08:04:10;4.50;;;0.90;;
62947;SDS011;51940;52.126;-0.994;2022-07-03T08:06:55;2.90;;;1.00;;
62947;SDS011;51940;52.126;-0.994;2022-07-03T08:09:20;2.70;;;1.00;;
62947;SDS011;51940;52.126;-0.994;2022-07-03T08:11:46;1.90;;;1.00;;
62947;SDS011;51940;52.126;-0.994;2022-07-03T08:14:11;2.80;;;1.10;;
62947;SDS011;51940;52.126;-0.994;2022-07-03T08:16:37;1.70;;;0.80;;
62947;SDS011;51940;52.126;-0.994;2022-07-03T08:19:06;3.10;;;1.20;;
62947;SDS011;51940;52.126;-0.994;2022-07-03T08:21:32;4.50;;;1.00;;
62947;SDS011;51940;52.126;-0.994;2022-07-03T08:23:57;1.90;;;0.70;;
62947;SDS011;51940;52.126;-0.994;2022-07-03T08:26:23;3.40;;;0.80;;
62947;SDS011;51940;52.126;-0.994;2022-07-03T08:28:48;2.50;;;0.60;;
62947;SDS011;51940;52.126;-0.994;2022-07-03T08:31:14;1.80;;;0.80;;
62947;SDS011;51940;52.126;-0.994;2022-07-03T08:33:39;2.10;;;0.60;;
62947;SDS011;51940;52.126;-0.994;2022-07-03T08:36:06;2.80;;;0.80;;
62947;SDS011;51940;52.126;-0.994;2022-07-03T08:38:32;3.10;;;0.70;;
62947;SDS011;51940;52.126;-0.994;2022-07-03T08:40:59;2.20;;;0.60;;
62947;SDS011;51940;52.126;-0.994;2022-07-03T08:43:28;2.80;;;0.80;;
62947;SDS011;51940;52.126;-0.994;2022-07-03T08:45:54;3.80;;;0.70;;
62947;SDS011;51940;52.126;-0.994;2022-07-03T08:48:21;2.90;;;0.70;;
62947;SDS011;51940;52.126;-0.994;2022-07-03T08:50:47;2.60;;;0.60;;
62947;SDS011;51940;52.126;-0.994;2022-07-03T08:53:15;1.90;;;0.70;;
62947;SDS011;51940;52.126;-0.994;2022-07-03T08:55:42;1.80;;;0.70;;
62947;SDS011;51940;52.126;-0.994;2022-07-03T08:58:14;2.10;;;0.70;;
62947;SDS011;51940;52.126;-0.994;2022-07-03T09:00:41;1.80;;;0.70;;
62947;SDS011;51940;52.126;-0.994;2022-07-03T09:03:10;4.20;;;1.00;;
62947;SDS011;51940;52.126;-0.994;2022-07-03T09:05:37;4.00;;;1.20;;
62947;SDS011;51940;52.126;-0.994;2022-07-03T09:08:05;3.60;;;0.70;;
62947;SDS011;51940;52.126;-0.994;2022-07-03T09:10:35;2.10;;;0.80;;
62947;SDS011;51940;52.126;-0.994;2022-07-03T09:13:01;4.80;;;0.60;;
62947;SDS011;51940;52.126;-0.994;2022-07-03T09:15:30;2.10;;;0.60;;
62947;SDS011;51940;52.126;-0.994;2022-07-03T09:17:56;2.40;;;0.60;;
62947;SDS011;51940;52.126;-0.994;2022-07-03T09:20:39;3.30;;;0.60;;
62947;SDS011;51940;52.126;-0.994;2022-07-03T09:23:14;4.10;;;0.70;;
62947;SDS011;51940;52.126;-0.994;2022-07-03T09:25:51;1.80;;;0.60;;
62947;SDS011;51940;52.126;-0.994;2022-07-03T09:28:21;1.30;;;0.50;;
62947;SDS011;51940;52.126;-0.994;2022-07-03T09:31:15;1.90;;;0.50;;
62947;SDS011;51940;52.126;-0.994;2022-07-03T09:36:20;1.20;;;0.50;;
62947;SDS011;51940;52.126;-0.994;2022-07-03T09:38:47;1.50;;;0.50;;
62947;SDS011;51940;52.126;-0.994;2022-07-03T09:41:13;0.80;;;0.40;;
62947;SDS011;51940;52.126;-0.994;2022-07-03T09:43:44;2.90;;;0.50;;
62947;SDS011;51940;52.126;-0.994;2022-07-03T09:46:11;2.20;;;0.60;;
62947;SDS011;51940;52.126;-0.994;2022-07-03T09:48:38;1.60;;;0.60;;
62947;SDS011;51940;52.126;-0.994;2022-07-03T09:53:57;0.50;;;0.40;;
62947;SDS011;51940;52.126;-0.994;2022-07-03T09:59:00;1.10;;;0.40;;
62947;SDS011;51940;52.126;-0.994;2022-07-03T10:01:36;3.10;;;0.60;;
62947;SDS011;51940;52.126;-0.994;2022-07-03T10:09:15;1.30;;;0.70;;
62947;SDS011;51940;52.126;-0.994;2022-07-03T10:11:42;1.50;;;0.70;;
62947;SDS011;51940;52.126;-0.994;2022-07-03T10:14:09;2.10;;;0.70;;
62947;SDS011;51940;52.126;-0.994;2022-07-03T10:16:39;1.70;;;0.70;;
62947;SDS011;51940;52.126;-0.994;2022-07-03T10:19:06;0.70;;;0.50;;
62947;SDS011;51940;52.126;-0.994;2022-07-03T10:21:35;1.80;;;1.00;;
62947;SDS011;51940;52.126;-0.994;2022-07-03T10:24:02;1.00;;;0.60;;
62947;SDS011;51940;52.126;-0.994;2022-07-03T10:26:30;2.30;;;0.50;;
62947;SDS011;51940;52.126;-0.994;2022-07-03T10:28:57;1.40;;;0.60;;
62947;SDS011;51940;52.126;-0.994;2022-07-03T10:31:25;1.20;;;0.50;;
62947;SDS011;51940;52.126;-0.994;2022-07-03T10:33:54;1.40;;;0.50;;
62947;SDS011;51940;52.126;-0.994;2022-07-03T10:36:22;1.20;;;0.60;;
62947;SDS011;51940;52.126;-0.994;2022-07-03T10:38:48;1.00;;;0.40;;
62947;SDS011;51940;52.126;-0.994;2022-07-03T10:41:23;1.60;;;0.50;;
62947;SDS011;51940;52.126;-0.994;2022-07-03T10:44:13;1.10;;;0.50;;
62947;SDS011;51940;52.126;-0.994;2022-07-03T10:46:58;0.90;;;0.40;;
62947;SDS011;51940;52.126;-0.994;2022-07-03T10:49:26;1.10;;;0.50;;
62947;SDS011;51940;52.126;-0.994;2022-07-03T10:52:00;1.30;;;0.50;;
62947;SDS011;51940;52.126;-0.994;2022-07-03T10:54:28;1.60;;;0.40;;
62947;SDS011;51940;52.126;-0.994;2022-07-03T11:02:31;2.70;;;0.40;;
62947;SDS011;51940;52.126;-0.994;2022-07-03T11:15:34;1.80;;;0.60;;
62947;SDS011;51940;52.126;-0.994;2022-07-03T11:20:34;1.80;;;0.40;;
62947;SDS011;51940;52.126;-0.994;2022-07-03T11:23:19;0.90;;;0.50;;
62947;SDS011;51940;52.126;-0.994;2022-07-03T11:25:52;0.90;;;0.40;;
62947;SDS011;51940;52.126;-0.994;2022-07-03T11:36:10;1.50;;;0.40;;
62947;SDS011;51940;52.126;-0.994;2022-07-03T11:44:07;0.80;;;0.50;;
62947;SDS011;51940;52.126;-0.994;2022-07-03T11:46:34;0.60;;;0.40;;
62947;SDS011;51940;52.126;-0.994;2022-07-03T11:51:35;1.60;;;0.40;;
62947;SDS011;51940;52.126;-0.994;2022-07-03T11:54:06;0.80;;;0.40;;
62947;SDS011;51940;52.126;-0.994;2022-07-03T11:56:32;0.60;;;0.40;;
62947;SDS011;51940;52.126;-0.994;2022-07-03T11:59:00;0.90;;;0.50;;
62947;SDS011;51940;52.126;-0.994;2022-07-03T12:01:32;2.30;;;1.10;;
62947;SDS011;51940;52.126;-0.994;2022-07-03T12:06:48;2.40;;;0.60;;
62947;SDS011;51940;52.126;-0.994;2022-07-03T12:09:26;1.00;;;0.60;;
62947;SDS011;51940;52.126;-0.994;2022-07-03T12:12:05;1.20;;;0.60;;
62947;SDS011;51940;52.126;-0.994;2022-07-03T12:14:36;1.30;;;0.50;;
62947;SDS011;51940;52.126;-0.994;2022-07-03T12:17:08;1.40;;;0.60;;
62947;SDS011;51940;52.126;-0.994;2022-07-03T12:19:43;0.50;;;0.40;;
62947;SDS011;51940;52.126;-0.994;2022-07-03T12:22:11;3.00;;;0.50;;
62947;SDS011;51940;52.126;-0.994;2022-07-03T12:24:36;0.80;;;0.40;;
62947;SDS011;51940;52.126;-0.994;2022-07-03T12:27:03;0.40;;;0.40;;
62947;SDS011;51940;52.126;-0.994;2022-07-03T12:29:30;0.90;;;0.70;;
62947;SDS011;51940;52.126;-0.994;2022-07-03T12:31:57;1.60;;;0.80;;
62947;SDS011;51940;52.126;-0.994;2022-07-03T12:34:23;1.70;;;0.50;;
62947;SDS011;51940;52.126;-0.994;2022-07-03T12:36:55;0.90;;;0.40;;
62947;SDS011;51940;52.126;-0.994;2022-07-03T12:42:26;0.80;;;0.50;;
62947;SDS011;51940;52.126;-0.994;2022-07-03T12:45:11;1.10;;;0.40;;
62947;SDS011;51940;52.126;-0.994;2022-07-03T12:47:40;1.30;;;0.40;;
62947;SDS011;51940;52.126;-0.994;2022-07-03T12:50:07;1.20;;;0.40;;
62947;SDS011;51940;52.126;-0.994;2022-07-03T12:52:48;1.00;;;0.60;;
62947;SDS011;51940;52.126;-0.994;2022-07-03T12:55:23;1.30;;;0.60;;
62947;SDS011;51940;52.126;-0.994;2022-07-03T13:00:58;0.70;;;0.50;;
62947;SDS011;51940;52.126;-0.994;2022-07-03T13:03:30;1.60;;;0.50;;
62947;SDS011;51940;52.126;-0.994;2022-07-03T13:05:57;2.20;;;0.70;;
62947;SDS011;51940;52.126;-0.994;2022-07-03T13:08:24;1.90;;;0.80;;
62947;SDS011;51940;52.126;-0.994;2022-07-03T13:10:56;1.70;;;0.70;;
62947;SDS011;51940;52.126;-0.994;2022-07-03T13:13:25;1.10;;;0.50;;
62947;SDS011;51940;52.126;-0.994;2022-07-03T13:15:54;1.20;;;0.80;;
62947;SDS011;51940;52.126;-0.994;2022-07-03T13:18:19;1.70;;;0.60;;
62947;SDS011;51940;52.126;-0.994;2022-07-03T13:20:45;1.40;;;0.60;;
62947;SDS011;51940;52.126;-0.994;2022-07-03T13:23:10;0.50;;;0.50;;
62947;SDS011;51940;52.126;-0.994;2022-07-03T13:25:36;1.30;;;0.80;;
62947;SDS011;51940;52.126;-0.994;2022-07-03T13:30:39;1.70;;;0.60;;
62947;SDS011;51940;52.126;-0.994;2022-07-03T13:33:06;1.30;;;0.60;;
62947;SDS011;51940;52.126;-0.994;2022-07-03T13:35:33;0.80;;;0.50;;
62947;SDS011;51940;52.126;-0.994;2022-07-03T13:38:00;1.20;;;0.60;;
62947;SDS011;51940;52.126;-0.994;2022-07-03T13:40:25;2.70;;;0.60;;
62947;SDS011;51940;52.126;-0.994;2022-07-03T13:42:51;2.00;;;0.50;;
62947;SDS011;51940;52.126;-0.994;2022-07-03T13:45:16;1.00;;;0.70;;
62947;SDS011;51940;52.126;-0.994;2022-07-03T13:47:42;1.10;;;0.70;;
62947;SDS011;51940;52.126;-0.994;2022-07-03T13:50:08;1.30;;;0.80;;
62947;SDS011;51940;52.126;-0.994;2022-07-03T13:52:34;1.10;;;0.50;;
62947;SDS011;51940;52.126;-0.994;2022-07-03T13:55:01;1.00;;;0.50;;
62947;SDS011;51940;52.126;-0.994;2022-07-03T13:57:28;0.80;;;0.60;;
62947;SDS011;51940;52.126;-0.994;2022-07-03T13:59:55;0.80;;;0.40;;
62947;SDS011;51940;52.126;-0.994;2022-07-03T14:02:23;0.60;;;0.50;;
62947;SDS011;51940;52.126;-0.994;2022-07-03T14:04:50;1.50;;;0.60;;
62947;SDS011;51940;52.126;-0.994;2022-07-03T14:07:15;1.10;;;0.60;;
62947;SDS011;51940;52.126;-0.994;2022-07-03T14:09:41;1.30;;;0.40;;
62947;SDS011;51940;52.126;-0.994;2022-07-03T14:12:06;1.10;;;0.50;;
62947;SDS011;51940;52.126;-0.994;2022-07-03T14:14:32;0.80;;;0.40;;
62947;SDS011;51940;52.126;-0.994;2022-07-03T14:16:57;1.30;;;0.40;;
62947;SDS011;51940;52.126;-0.994;2022-07-03T14:19:23;0.70;;;0.40;;
62947;SDS011;51940;52.126;-0.994;2022-07-03T14:21:48;0.70;;;0.50;;
62947;SDS011;51940;52.126;-0.994;2022-07-03T14:24:14;0.60;;;0.40;;
62947;SDS011;51940;52.126;-0.994;2022-07-03T14:26:39;0.70;;;0.50;;
62947;SDS011;51940;52.126;-0.994;2022-07-03T14:29:23;0.80;;;0.40;;
62947;SDS011;51940;52.126;-0.994;2022-07-03T14:32:07;0.80;;;0.40;;
62947;SDS011;51940;52.126;-0.994;2022-07-03T14:34:51;0.50;;;0.40;;
62947;SDS011;51940;52.126;-0.994;2022-07-03T14:37:16;0.50;;;0.50;;
62947;SDS011;51940;52.126;-0.994;2022-07-03T14:39:47;0.90;;;0.50;;
62947;SDS011;51940;52.126;-0.994;2022-07-03T14:42:14;0.80;;;0.50;;
62947;SDS011;51940;52.126;-0.994;2022-07-03T14:44:40;0.60;;;0.40;;
62947;SDS011;51940;52.126;-0.994;2022-07-03T14:47:06;0.60;;;0.50;;
62947;SDS011;51940;52.126;-0.994;2022-07-03T14:49:31;0.50;;;0.50;;
62947;SDS011;51940;52.126;-0.994;2022-07-03T14:52:00;1.00;;;0.40;;
62947;SDS011;51940;52.126;-0.994;2022-07-03T14:54:27;0.40;;;0.40;;
62947;SDS011;51940;52.126;-0.994;2022-07-03T14:56:54;0.70;;;0.50;;
62947;SDS011;51940;52.126;-0.994;2022-07-03T15:00:08;0.50;;;0.50;;
62947;SDS011;51940;52.126;-0.994;2022-07-03T15:02:29;0.40;;;0.40;;
62947;SDS011;51940;52.126;-0.994;2022-07-03T15:05:13;0.70;;;0.40;;
62947;SDS011;51940;52.126;-0.994;2022-07-03T15:10:23;1.50;;;0.40;;
62947;SDS011;51940;52.126;-0.994;2022-07-03T15:12:52;0.40;;;0.40;;
62947;SDS011;51940;52.126;-0.994;2022-07-03T15:15:20;0.40;;;0.40;;
62947;SDS011;51940;52.126;-0.994;2022-07-03T15:17:49;0.90;;;0.40;;
62947;SDS011;51940;52.126;-0.994;2022-07-03T15:20:18;0.60;;;0.40;;
62947;SDS011;51940;52.126;-0.994;2022-07-03T15:22:46;0.70;;;0.50;;
62947;SDS011;51940;52.126;-0.994;2022-07-03T15:25:16;0.50;;;0.40;;
62947;SDS011;51940;52.126;-0.994;2022-07-03T15:27:45;1.10;;;0.50;;
62947;SDS011;51940;52.126;-0.994;2022-07-03T15:30:15;0.40;;;0.30;;
62947;SDS011;51940;52.126;-0.994;2022-07-03T15:32:41;2.40;;;0.60;;
62947;SDS011;51940;52.126;-0.994;2022-07-03T15:35:12;1.00;;;0.40;;
62947;SDS011;51940;52.126;-0.994;2022-07-03T15:37:44;1.10;;;0.50;;
62947;SDS011;51940;52.126;-0.994;2022-07-03T15:48:44;0.50;;;0.50;;
62947;SDS011;51940;52.126;-0.994;2022-07-03T15:54:13;1.40;;;0.60;;
62947;SDS011;51940;52.126;-0.994;2022-07-03T15:56:52;0.60;;;0.60;;
62947;SDS011;51940;52.126;-0.994;2022-07-03T15:59:23;1.20;;;0.60;;
62947;SDS011;51940;52.126;-0.994;2022-07-03T16:01:52;0.70;;;0.50;;
62947;SDS011;51940;52.126;-0.994;2022-07-03T16:07:13;2.00;;;0.60;;
62947;SDS011;51940;52.126;-0.994;2022-07-03T16:09:40;1.20;;;0.60;;
62947;SDS011;51940;52.126;-0.994;2022-07-03T16:12:08;0.90;;;0.60;;
62947;SDS011;51940;52.126;-0.994;2022-07-03T16:14:49;1.10;;;0.50;;
62947;SDS011;51940;52.126;-0.994;2022-07-03T16:17:16;1.10;;;0.50;;
62947;SDS011;51940;52.126;-0.994;2022-07-03T16:19:46;1.00;;;0.60;;
62947;SDS011;51940;52.126;-0.994;2022-07-03T16:22:12;0.90;;;0.60;;
62947;SDS011;51940;52.126;-0.994;2022-07-03T16:24:39;1.50;;;0.60;;
62947;SDS011;51940;52.126;-0.994;2022-07-03T16:27:06;0.80;;;0.60;;
62947;SDS011;51940;52.126;-0.994;2022-07-03T16:29:36;1.20;;;0.60;;
62947;SDS011;51940;52.126;-0.994;2022-07-03T16:32:03;0.60;;;0.50;;
62947;SDS011;51940;52.126;-0.994;2022-07-03T16:34:33;1.30;;;0.70;;
62947;SDS011;51940;52.126;-0.994;2022-07-03T16:37:06;1.60;;;0.60;;